createdAt,value
2019-01-19T00:00:17.024Z,4.50
2019-01-19T00:03:54.935Z,3.63
2019-01-19T00:07:04.091Z,4.40
2019-01-19T00:10:10.572Z,5.10
2019-01-19T00:13:27.810Z,4.00
2019-01-19T00:16:27.832Z,4.00
2019-01-19T00:20:06.604Z,4.30
2019-01-19T00:23:43.261Z,3.93
2019-01-19T00:27:06.654Z,4.40
2019-01-19T00:30:33.954Z,3.25
2019-01-19T00:34:03.271Z,3.63
2019-01-19T00:37:27.955Z,3.97
2019-01-19T00:41:08.030Z,2.90
2019-01-19T00:44:29.536Z,3.00
2019-01-19T00:47:21.417Z,4.17
2019-01-19T00:50:31.245Z,4.20
2019-01-19T00:53:36.605Z,2.97
2019-01-19T00:56:43.539Z,5.13
2019-01-19T00:59:28.007Z,5.23
2019-01-19T01:03:03.624Z,3.90
2019-01-19T01:06:27.628Z,3.27
2019-01-19T01:09:56.651Z,3.58
2019-01-19T01:13:31.634Z,3.87
2019-01-19T01:16:56.751Z,4.13
2019-01-19T01:20:33.166Z,3.33
2019-01-19T01:23:47.739Z,2.67
2019-01-19T01:27:02.652Z,3.93
2019-01-19T01:30:51.789Z,4.60
2019-01-19T01:34:25.941Z,2.83
2019-01-19T01:37:53.254Z,3.72
2019-01-19T01:40:59.374Z,4.03
2019-01-19T01:44:31.467Z,3.60
2019-01-19T01:47:57.938Z,3.67
2019-01-19T01:50:58.839Z,3.40
2019-01-19T01:54:20.924Z,4.67
2019-01-19T01:56:52.897Z,3.10
2019-01-19T01:59:49.013Z,3.97
2019-01-19T02:03:04.925Z,3.63
2019-01-19T02:05:50.351Z,3.63
2019-01-19T02:09:19.976Z,3.70
2019-01-19T02:12:49.272Z,3.10
2019-01-19T02:16:41.029Z,2.80
2019-01-19T02:20:15.049Z,3.57
2019-01-19T02:24:05.610Z,2.17
2019-01-19T02:27:54.776Z,3.50
2019-01-19T02:31:25.524Z,1.77
2019-01-19T02:34:22.279Z,3.00
2019-01-19T02:37:30.314Z,3.07
2019-01-19T02:40:51.556Z,3.73
2019-01-19T02:44:26.711Z,3.20
2019-01-19T02:47:54.095Z,3.13
2019-01-19T02:50:43.304Z,1.27
2019-01-19T02:53:57.729Z,2.57
2019-01-19T02:57:44.001Z,4.00
2019-01-19T03:00:52.943Z,2.67
2019-01-19T03:04:17.615Z,2.70
2019-01-19T03:07:44.796Z,3.23
2019-01-19T03:11:07.374Z,3.67
2019-01-19T03:14:38.136Z,2.97
2019-01-19T03:18:13.997Z,2.57
2019-01-19T03:21:10.893Z,3.67
2019-01-19T03:24:28.533Z,2.13
2019-01-19T03:28:01.614Z,3.27
2019-01-19T03:31:27.176Z,3.23
2019-01-19T03:34:48.003Z,2.33
2019-01-19T03:38:16.024Z,2.43
2019-01-19T03:41:26.455Z,2.40
2019-01-19T03:44:49.527Z,4.03
2019-01-19T03:48:47.697Z,2.57
2019-01-19T03:51:49.039Z,2.50
2019-01-19T03:54:59.546Z,1.37
2019-01-19T03:58:15.810Z,1.60
2019-01-19T04:01:42.074Z,3.13
2019-01-19T04:05:38.073Z,3.03
2019-01-19T04:08:52.197Z,3.10
2019-01-19T04:12:35.539Z,2.47
2019-01-19T04:15:55.931Z,2.13
2019-01-19T04:19:06.021Z,3.13
2019-01-19T04:22:36.977Z,2.93
2019-01-19T04:25:42.704Z,2.90
2019-01-19T04:28:18.470Z,2.57
2019-01-19T04:30:50.424Z,2.37
2019-01-19T04:33:23.054Z,2.93
2019-01-19T04:35:55.386Z,3.58
2019-01-19T04:38:27.599Z,3.37
2019-01-19T04:40:59.918Z,2.72
2019-01-19T04:43:31.959Z,2.67
2019-01-19T04:46:04.047Z,3.47
2019-01-19T04:48:36.502Z,2.53
2019-01-19T04:51:08.863Z,3.08
2019-01-19T04:53:40.905Z,2.62
2019-01-19T04:56:13.058Z,2.67
2019-01-19T04:58:45.118Z,3.00
2019-01-19T05:01:16.852Z,2.83
2019-01-19T05:03:48.689Z,3.40
2019-01-19T05:06:20.522Z,2.00
2019-01-19T05:08:52.735Z,3.07
2019-01-19T05:11:24.746Z,2.60
2019-01-19T05:13:56.509Z,3.50
2019-01-19T05:16:28.357Z,3.07
2019-01-19T05:19:00.124Z,2.83
2019-01-19T05:21:32.071Z,2.27
2019-01-19T05:24:03.840Z,2.83
2019-01-19T05:26:35.631Z,3.77
2019-01-19T05:29:07.712Z,3.00
2019-01-19T05:31:39.475Z,2.73
2019-01-19T05:34:11.307Z,2.17
2019-01-19T05:36:43.055Z,3.50
2019-01-19T05:39:14.820Z,2.40
2019-01-19T05:41:46.585Z,1.20
2019-01-19T05:44:18.364Z,2.60
2019-01-19T05:46:50.124Z,1.97
2019-01-19T05:49:21.893Z,1.90
2019-01-19T05:51:53.635Z,1.60
2019-01-19T05:54:25.476Z,1.33
2019-01-19T05:56:57.366Z,2.43
2019-01-19T05:59:29.516Z,1.07
2019-01-19T06:02:01.707Z,2.58
2019-01-19T06:04:33.503Z,2.57
2019-01-19T06:07:05.291Z,1.63
2019-01-19T06:09:37.056Z,1.60
2019-01-19T06:12:08.866Z,1.37
2019-01-19T06:14:40.632Z,2.60
2019-01-19T06:17:12.377Z,3.20
2019-01-19T06:19:45.169Z,2.77
2019-01-19T06:22:18.198Z,1.98
2019-01-19T06:27:21.104Z,1.95
2019-01-19T06:29:53.142Z,1.82
2019-01-19T06:32:24.889Z,1.77
2019-01-19T06:34:56.691Z,2.00
2019-01-19T06:37:28.415Z,2.90
2019-01-19T06:40:00.297Z,1.40
2019-01-19T06:42:32.544Z,2.47
2019-01-19T06:45:04.592Z,1.90
2019-01-19T06:47:37.097Z,2.67
2019-01-19T06:50:11.740Z,1.92
2019-01-19T06:52:43.511Z,3.63
2019-01-19T06:55:18.935Z,2.50
2019-01-19T06:57:51.154Z,2.87
2019-01-19T07:00:23.585Z,1.42
2019-01-19T07:02:55.936Z,2.65
2019-01-19T07:05:28.130Z,4.10
2019-01-19T07:07:59.923Z,1.73
2019-01-19T07:10:31.803Z,2.30
2019-01-19T07:13:03.595Z,3.43
2019-01-19T07:15:35.661Z,5.97
2019-01-19T07:18:07.417Z,4.20
2019-01-19T07:20:39.311Z,6.30
2019-01-19T07:23:11.104Z,4.53
2019-01-19T07:25:43.604Z,4.27
2019-01-19T07:28:16.482Z,4.40
2019-01-19T07:30:48.885Z,3.20
2019-01-19T07:33:21.111Z,3.00
2019-01-19T07:35:52.950Z,2.70
2019-01-19T07:38:24.810Z,4.50
2019-01-19T07:40:56.597Z,3.20
2019-01-19T07:43:28.959Z,3.87
2019-01-19T07:46:01.117Z,4.30
2019-01-19T07:48:32.886Z,3.27
2019-01-19T07:51:04.709Z,4.20
2019-01-19T07:53:36.500Z,4.30
2019-01-19T07:56:08.309Z,3.67
2019-01-19T07:58:40.086Z,4.97
2019-01-19T08:01:11.967Z,4.53
2019-01-19T08:03:43.706Z,3.33
2019-01-19T08:06:15.922Z,4.53
2019-01-19T08:08:48.030Z,3.33
2019-01-19T08:11:19.794Z,4.03
2019-01-19T08:13:51.894Z,6.40
2019-01-19T08:16:24.008Z,5.05
2019-01-19T08:18:55.753Z,4.43
2019-01-19T08:21:27.655Z,4.17
2019-01-19T08:23:59.469Z,4.50
2019-01-19T08:26:31.262Z,3.97
2019-01-19T08:29:03.021Z,4.17
2019-01-19T08:31:34.791Z,2.90
2019-01-19T08:34:06.551Z,5.40
2019-01-19T08:36:38.358Z,5.40
2019-01-19T08:39:10.904Z,6.20
2019-01-19T08:41:42.959Z,4.72
2019-01-19T08:44:15.033Z,4.87
2019-01-19T08:46:46.899Z,4.40
2019-01-19T08:49:18.693Z,5.63
2019-01-19T08:51:50.442Z,6.50
2019-01-19T08:54:22.368Z,5.10
2019-01-19T08:56:54.110Z,4.13
2019-01-19T08:59:25.870Z,4.40
2019-01-19T09:01:57.623Z,3.17
2019-01-19T09:04:29.606Z,3.60
2019-01-19T09:07:01.447Z,4.60
2019-01-19T09:09:33.221Z,3.30
2019-01-19T09:12:05.415Z,2.57
2019-01-19T09:14:37.602Z,3.22
2019-01-19T09:17:09.383Z,4.23
2019-01-19T09:19:41.173Z,4.33
2019-01-19T09:22:12.964Z,2.90
2019-01-19T09:24:44.795Z,3.70
2019-01-19T09:27:16.656Z,3.17
2019-01-19T09:29:48.417Z,3.27
2019-01-19T09:32:20.565Z,3.27
2019-01-19T09:34:52.612Z,2.27
2019-01-19T09:37:24.487Z,3.23
2019-01-19T09:39:56.850Z,2.80
2019-01-19T09:42:28.918Z,3.05
2019-01-19T09:45:00.674Z,2.40
2019-01-19T09:47:32.466Z,3.07
2019-01-19T09:50:05.033Z,2.83
2019-01-19T09:52:37.198Z,2.58
2019-01-19T09:55:09.460Z,2.57
2019-01-19T09:57:41.644Z,3.65
2019-01-19T10:00:16.674Z,2.73
2019-01-19T10:02:48.477Z,3.67
2019-01-19T10:05:22.286Z,3.70
2019-01-19T10:07:55.729Z,3.00
2019-01-19T10:10:27.550Z,3.33
2019-01-19T10:12:59.340Z,3.17
2019-01-19T10:15:31.137Z,2.80
2019-01-19T10:18:02.924Z,3.10
2019-01-19T10:20:35.110Z,3.03
2019-01-19T10:23:07.300Z,2.80
2019-01-19T10:25:39.405Z,3.25
2019-01-19T10:28:11.203Z,2.03
2019-01-19T10:30:43.429Z,2.20
2019-01-19T10:33:15.494Z,1.20
2019-01-19T10:35:47.297Z,2.23
2019-01-19T10:38:19.363Z,3.00
2019-01-19T10:40:51.337Z,2.37
2019-01-19T10:43:23.495Z,2.80
2019-01-19T10:45:55.350Z,2.67
2019-01-19T10:48:27.507Z,2.40
2019-01-19T10:51:00.307Z,3.43
2019-01-19T10:53:33.362Z,1.85
2019-01-19T10:56:06.484Z,2.83
2019-01-19T10:58:38.254Z,3.50
2019-01-19T11:01:10.026Z,2.67
2019-01-19T11:03:41.811Z,2.67
2019-01-19T11:06:13.586Z,3.10
2019-01-19T11:08:45.415Z,3.43
2019-01-19T11:11:17.154Z,2.70
2019-01-19T11:13:49.099Z,2.50
2019-01-19T11:16:20.879Z,2.50
2019-01-19T11:18:52.751Z,3.10
2019-01-19T11:21:24.877Z,3.13
2019-01-19T11:23:56.633Z,2.57
2019-01-19T11:26:28.391Z,2.57
2019-01-19T11:29:00.805Z,2.00
2019-01-19T11:31:33.142Z,2.98
2019-01-19T11:34:05.599Z,2.65
2019-01-19T11:36:39.074Z,2.00
2019-01-19T11:39:10.844Z,3.15
2019-01-19T11:41:43.161Z,1.95
2019-01-19T11:44:15.509Z,2.42
2019-01-19T11:46:47.841Z,2.33
2019-01-19T11:49:20.161Z,2.62
2019-01-19T11:51:52.490Z,2.55
2019-01-19T11:54:25.081Z,2.70
2019-01-19T11:56:56.864Z,1.70
2019-01-19T11:59:29.194Z,2.10
2019-01-19T12:02:01.790Z,2.40
2019-01-19T12:04:33.659Z,2.17
2019-01-19T12:07:06.156Z,2.33
2019-01-19T12:09:38.475Z,2.05
2019-01-19T12:12:10.780Z,2.10
2019-01-19T12:14:43.143Z,1.75
2019-01-19T12:17:15.515Z,2.02
2019-01-19T12:19:48.289Z,1.82
2019-01-19T12:22:20.347Z,1.57
2019-01-19T12:24:52.732Z,2.17
2019-01-19T12:27:25.139Z,2.62
2019-01-19T12:29:57.466Z,2.08
2019-01-19T12:32:29.834Z,1.92
2019-01-19T12:35:02.225Z,2.20
2019-01-19T12:37:34.602Z,2.20
2019-01-19T12:40:08.869Z,2.10
2019-01-19T12:42:41.674Z,1.95
2019-01-19T12:45:21.421Z,1.85
2019-01-19T12:47:54.303Z,1.75
2019-01-19T12:50:28.576Z,1.57
2019-01-19T12:53:01.395Z,1.62
2019-01-19T12:55:33.457Z,1.05
2019-01-19T12:58:07.367Z,1.57
2019-01-19T13:00:39.784Z,1.22
2019-01-19T13:03:12.282Z,1.52
2019-01-19T13:06:13.425Z,1.62
2019-01-19T13:08:46.095Z,1.20
2019-01-19T13:11:36.951Z,1.50
2019-01-19T13:14:09.336Z,1.20
2019-01-19T13:17:55.802Z,1.25
2019-01-19T13:21:55.155Z,1.50
2019-01-19T13:24:53.736Z,1.37
2019-01-19T13:28:06.308Z,1.32
2019-01-19T13:31:17.326Z,1.67
2019-01-19T13:35:05.179Z,1.70
2019-01-19T13:38:23.589Z,1.30
2019-01-19T13:42:19.521Z,1.52
2019-01-19T13:45:47.043Z,1.37
2019-01-19T13:49:03.225Z,1.32
2019-01-19T13:52:23.161Z,1.50
2019-01-19T13:55:44.559Z,1.40
2019-01-19T13:58:44.746Z,1.40
2019-01-19T14:02:07.133Z,1.75
2019-01-19T14:05:34.967Z,1.50
2019-01-19T14:09:15.915Z,1.45
2019-01-19T14:12:42.193Z,1.92
2019-01-19T14:16:04.176Z,1.87
2019-01-19T14:19:34.314Z,0.90
2019-01-19T14:23:19.437Z,1.85
2019-01-19T14:26:41.212Z,1.20
2019-01-19T14:30:23.328Z,1.50
2019-01-19T14:33:37.537Z,1.47
2019-01-19T14:36:28.118Z,1.95
2019-01-19T14:40:00.693Z,1.47
2019-01-19T14:43:43.521Z,1.60
2019-01-19T14:47:18.832Z,1.62
2019-01-19T14:50:31.988Z,1.75
2019-01-19T14:53:50.743Z,2.15
2019-01-19T14:57:13.136Z,1.70
2019-01-19T15:00:57.649Z,1.55
2019-01-19T15:04:24.524Z,1.42
2019-01-19T15:07:59.155Z,1.80
2019-01-19T15:11:11.987Z,1.45
2019-01-19T15:14:45.463Z,1.70
2019-01-19T15:18:17.507Z,1.20
2019-01-19T15:21:39.226Z,2.05
2019-01-19T15:25:02.777Z,1.42
2019-01-19T15:28:32.023Z,1.95
2019-01-19T15:31:49.051Z,1.65
2019-01-19T15:35:22.256Z,1.80
2019-01-19T15:38:50.324Z,2.10
2019-01-19T15:42:10.152Z,1.95
2019-01-19T15:45:40.787Z,1.75
2019-01-19T15:48:56.622Z,1.40
2019-01-19T15:52:11.571Z,1.90
2019-01-19T15:55:16.672Z,1.90
2019-01-19T15:58:36.487Z,2.00
2019-01-19T16:02:13.449Z,1.90
2019-01-19T16:05:39.896Z,1.93
2019-01-19T16:09:18.066Z,1.80
2019-01-19T16:13:02.948Z,1.57
2019-01-19T16:16:28.328Z,1.53
2019-01-19T16:19:43.636Z,1.63
2019-01-19T16:23:20.534Z,1.73
2019-01-19T16:27:02.669Z,1.37
2019-01-19T16:30:12.326Z,1.73
2019-01-19T16:33:35.819Z,2.13
2019-01-19T16:36:56.710Z,2.17
2019-01-19T16:40:16.500Z,1.40
2019-01-19T16:43:25.545Z,1.47
2019-01-19T16:47:00.607Z,2.13
2019-01-19T16:50:19.554Z,1.83
2019-01-19T16:53:33.912Z,1.80
2019-01-19T16:57:13.750Z,2.70
2019-01-19T17:01:19.112Z,2.93
2019-01-19T17:04:45.652Z,1.70
2019-01-19T17:08:02.951Z,1.87
2019-01-19T17:11:19.573Z,3.13
2019-01-19T17:15:02.449Z,2.50
2019-01-19T17:18:15.297Z,1.47
2019-01-19T17:21:36.655Z,2.07
2019-01-19T17:25:00.722Z,1.87
2019-01-19T17:28:34.621Z,2.47
2019-01-19T17:31:45.839Z,1.92
2019-01-19T17:35:07.735Z,2.27
2019-01-19T17:38:33.237Z,2.47
2019-01-19T17:42:13.538Z,3.50
2019-01-19T17:45:18.751Z,3.40
2019-01-19T17:48:35.200Z,2.77
2019-01-19T17:52:18.236Z,1.90
2019-01-19T17:55:26.055Z,2.80
2019-01-19T17:59:03.075Z,1.33
2019-01-19T18:02:42.879Z,1.37
2019-01-19T18:05:52.783Z,3.10
2019-01-19T18:09:13.145Z,2.87
2019-01-19T18:12:35.327Z,2.50
2019-01-19T18:16:25.672Z,2.00
2019-01-19T18:19:35.886Z,2.63
2019-01-19T18:22:48.411Z,2.10
2019-01-19T18:26:32.186Z,3.00
2019-01-19T18:29:34.438Z,2.30
2019-01-19T18:33:03.628Z,4.00
2019-01-19T18:36:09.694Z,3.13
2019-01-19T18:39:30.509Z,3.67
2019-01-19T18:42:54.905Z,2.83
2019-01-19T18:45:53.793Z,5.47
2019-01-19T18:49:39.272Z,4.03
2019-01-19T18:52:42.233Z,3.07
2019-01-19T18:55:49.591Z,5.83
2019-01-19T18:59:05.657Z,4.33
2019-01-19T19:02:29.450Z,4.57
2019-01-19T19:05:31.816Z,4.37
2019-01-19T19:08:57.349Z,3.80
2019-01-19T19:12:53.760Z,4.13
2019-01-19T19:16:17.300Z,3.30
2019-01-19T19:20:02.301Z,3.75
2019-01-19T19:26:35.419Z,1.70
2019-01-19T19:29:52.057Z,3.47
2019-01-19T19:33:18.868Z,4.20
2019-01-19T19:36:37.798Z,5.10
2019-01-19T19:40:15.853Z,4.03
2019-01-19T19:43:25.538Z,4.03
2019-01-19T19:47:00.717Z,2.77
2019-01-19T19:50:21.778Z,4.00
2019-01-19T19:52:53.734Z,2.37
2019-01-19T19:55:23.304Z,3.63
2019-01-19T19:57:55.523Z,5.23
2019-01-19T20:00:27.867Z,4.87
2019-01-19T20:03:00.339Z,6.30
2019-01-19T20:05:32.586Z,4.35
2019-01-19T20:08:05.371Z,5.67
2019-01-19T20:10:38.016Z,5.22
2019-01-19T20:13:10.245Z,4.78
2019-01-19T20:15:42.324Z,4.07
2019-01-19T20:18:14.370Z,3.73
2019-01-19T20:20:46.511Z,4.60
2019-01-19T20:23:18.649Z,4.27
2019-01-19T20:25:51.825Z,4.47
2019-01-19T20:28:24.324Z,4.50
2019-01-19T20:30:57.212Z,2.85
2019-01-19T20:33:30.252Z,4.70
2019-01-19T20:36:03.168Z,4.67
2019-01-19T20:38:36.210Z,4.22
2019-01-19T20:41:08.638Z,4.65
2019-01-19T20:43:41.322Z,6.92
2019-01-19T20:46:13.751Z,3.62
2019-01-19T20:48:46.554Z,4.35
2019-01-19T20:51:18.997Z,4.50
2019-01-19T20:53:52.285Z,4.03
2019-01-19T20:56:24.429Z,3.73
2019-01-19T20:58:56.417Z,5.80
2019-01-19T21:01:28.587Z,2.37
2019-01-19T21:04:01.657Z,3.67
2019-01-19T21:06:33.772Z,4.08
2019-01-19T21:09:10.956Z,4.87
2019-01-19T21:11:43.127Z,3.80
2019-01-19T21:14:15.883Z,4.62
2019-01-19T21:16:47.938Z,6.20
2019-01-19T21:19:19.784Z,7.57
2019-01-19T21:21:51.679Z,4.93
2019-01-19T21:24:23.422Z,5.33
2019-01-19T21:26:55.213Z,6.07
2019-01-19T21:29:27.260Z,3.97
2019-01-19T21:31:59.535Z,3.87
2019-01-19T21:34:31.568Z,6.22
2019-01-19T21:37:03.348Z,4.10
2019-01-19T21:39:35.263Z,4.33
2019-01-19T21:42:07.036Z,4.50
2019-01-19T21:44:38.790Z,5.10
2019-01-19T21:47:10.664Z,5.00
2019-01-19T21:49:42.583Z,4.27
2019-01-19T21:52:14.423Z,4.27
2019-01-19T21:54:46.220Z,5.83
2019-01-19T21:57:18.115Z,3.57
2019-01-19T21:59:49.886Z,5.93
2019-01-19T22:02:21.661Z,4.83
2019-01-19T22:04:53.409Z,5.13
2019-01-19T22:07:25.235Z,5.30
2019-01-19T22:09:56.961Z,4.03
2019-01-19T22:12:28.871Z,5.13
2019-01-19T22:15:00.651Z,5.10
2019-01-19T22:17:39.342Z,4.77
2019-01-19T22:20:07.045Z,4.03
2019-01-19T22:22:38.854Z,3.92
2019-01-19T22:25:10.701Z,5.37
2019-01-19T22:27:47.751Z,4.87
2019-01-19T22:30:22.706Z,4.20
2019-01-19T22:32:56.251Z,4.83
2019-01-19T22:35:29.967Z,4.47
2019-01-19T22:38:02.176Z,4.70
2019-01-19T22:40:34.244Z,5.00
2019-01-19T22:43:10.437Z,4.07
2019-01-19T22:45:42.956Z,3.73
2019-01-19T22:48:15.661Z,5.53
2019-01-19T22:50:47.831Z,4.70
2019-01-19T22:53:19.572Z,3.60
2019-01-19T22:55:51.437Z,6.40
2019-01-19T22:58:23.315Z,3.70
2019-01-19T23:01:21.918Z,4.53
2019-01-19T23:03:54.140Z,2.63
2019-01-19T23:06:26.359Z,3.85
2019-01-19T23:08:58.162Z,3.73
2019-01-19T23:11:33.965Z,5.57
2019-01-19T23:14:04.875Z,5.90
2019-01-19T23:16:36.766Z,3.87
2019-01-19T23:19:08.507Z,3.70
2019-01-19T23:21:40.665Z,4.43
2019-01-19T23:24:12.735Z,6.35
2019-01-19T23:26:45.279Z,3.63
2019-01-19T23:29:17.449Z,6.08
2019-01-19T23:31:49.378Z,3.83
2019-01-19T23:34:21.498Z,5.20
2019-01-19T23:36:53.269Z,5.27
2019-01-19T23:39:27.548Z,4.57
2019-01-19T23:41:59.310Z,3.10
2019-01-19T23:44:31.066Z,4.37
2019-01-19T23:47:02.868Z,3.87
2019-01-19T23:49:34.610Z,4.03
2019-01-19T23:52:06.465Z,4.60
2019-01-19T23:54:38.539Z,4.77
2019-01-19T23:57:10.381Z,4.97
2019-01-19T23:59:42.139Z,3.60
